sensor_id;sensor_type;location;lat;lon;timestamp;pressure;altitude;pressure_sealevel;temperature;humidity
47716;BME280;33476;50.984;3.538;2023-02-18T00:01:53;102467.66;;;13.47;76.78
47716;BME280;33476;50.984;3.538;2023-02-18T00:04:18;102468.44;;;13.51;76.45
47716;BME280;33476;50.984;3.538;2023-02-18T00:06:44;102465.81;;;13.51;76.22
47716;BME280;33476;50.984;3.538;2023-02-18T00:09:10;102455.47;;;13.46;76.78
47716;BME280;33476;50.984;3.538;2023-02-18T00:11:36;102449.53;;;13.41;76.88
47716;BME280;33476;50.984;3.538;2023-02-18T00:14:04;102453.81;;;13.43;76.86
47716;BME280;33476;50.984;3.538;2023-02-18T00:16:30;102457.22;;;13.45;76.57
47716;BME280;33476;50.984;3.538;2023-02-18T00:19:00;102455.63;;;13.41;77.13
47716;BME280;33476;50.984;3.538;2023-02-18T00:21:28;102447.59;;;13.46;76.64
47716;BME280;33476;50.984;3.538;2023-02-18T00:23:54;102443.19;;;13.46;76.81
47716;BME280;33476;50.984;3.538;2023-02-18T00:26:19;102437.88;;;13.48;76.63
47716;BME280;33476;50.984;3.538;2023-02-18T00:28:46;102430.88;;;13.48;76.65
47716;BME280;33476;50.984;3.538;2023-02-18T00:31:34;102422.50;;;13.37;76.85
47716;BME280;33476;50.984;3.538;2023-02-18T00:34:00;102423.28;;;13.41;76.78
47716;BME280;33476;50.984;3.538;2023-02-18T00:36:27;102424.28;;;13.37;77.00
47716;BME280;33476;50.984;3.538;2023-02-18T00:38:55;102421.66;;;13.37;77.19
47716;BME280;33476;50.984;3.538;2023-02-18T00:41:22;102421.59;;;13.38;76.78
47716;BME280;33476;50.984;3.538;2023-02-18T00:43:48;102418.06;;;13.39;76.93
47716;BME280;33476;50.984;3.538;2023-02-18T00:46:14;102419.63;;;13.45;76.99
47716;BME280;33476;50.984;3.538;2023-02-18T00:48:40;102409.97;;;13.45;76.58
47716;BME280;33476;50.984;3.538;2023-02-18T00:51:06;102413.56;;;13.43;76.96
47716;BME280;33476;50.984;3.538;2023-02-18T00:53:32;102419.81;;;13.39;76.95
47716;BME280;33476;50.984;3.538;2023-02-18T00:55:57;102418.06;;;13.39;77.06
47716;BME280;33476;50.984;3.538;2023-02-18T00:58:23;102410.09;;;13.42;76.69
47716;BME280;33476;50.984;3.538;2023-02-18T01:00:48;102410.16;;;13.41;77.08
47716;BME280;33476;50.984;3.538;2023-02-18T01:03:14;102412.00;;;13.37;76.84
47716;BME280;33476;50.984;3.538;2023-02-18T01:05:39;102408.38;;;13.41;76.72
47716;BME280;33476;50.984;3.538;2023-02-18T01:08:06;102411.81;;;13.43;76.37
47716;BME280;33476;50.984;3.538;2023-02-18T01:10:33;102408.31;;;13.43;76.54
47716;BME280;33476;50.984;3.538;2023-02-18T01:12:58;102402.38;;;13.38;76.65
47716;BME280;33476;50.984;3.538;2023-02-18T01:15:23;102403.34;;;13.35;76.76
47716;BME280;33476;50.984;3.538;2023-02-18T01:17:49;102395.47;;;13.35;76.63
47716;BME280;33476;50.984;3.538;2023-02-18T01:20:16;102400.66;;;13.37;76.44
47716;BME280;33476;50.984;3.538;2023-02-18T01:22:42;102399.88;;;13.35;76.61
47716;BME280;33476;50.984;3.538;2023-02-18T01:25:08;102405.97;;;13.35;76.51
47716;BME280;33476;50.984;3.538;2023-02-18T01:27:34;102402.38;;;13.38;76.30
47716;BME280;33476;50.984;3.538;2023-02-18T01:29:59;102396.25;;;13.37;76.32
47716;BME280;33476;50.984;3.538;2023-02-18T01:32:25;102390.16;;;13.37;76.14
47716;BME280;33476;50.984;3.538;2023-02-18T01:34:50;102385.81;;;13.36;76.00
47716;BME280;33476;50.984;3.538;2023-02-18T01:37:15;102389.25;;;13.38;76.03
47716;BME280;33476;50.984;3.538;2023-02-18T01:39:41;102384.97;;;13.35;75.97
47716;BME280;33476;50.984;3.538;2023-02-18T01:42:17;102380.69;;;13.33;76.30
47716;BME280;33476;50.984;3.538;2023-02-18T01:44:43;102379.53;;;13.41;75.64
47716;BME280;33476;50.984;3.538;2023-02-18T01:47:08;102384.84;;;13.38;75.54
47716;BME280;33476;50.984;3.538;2023-02-18T01:49:34;102371.97;;;13.32;75.94
47716;BME280;33476;50.984;3.538;2023-02-18T01:52:04;102381.56;;;13.32;76.06
47716;BME280;33476;50.984;3.538;2023-02-18T01:54:34;102376.31;;;13.33;75.60
47716;BME280;33476;50.984;3.538;2023-02-18T01:57:14;102373.72;;;13.32;75.71
47716;BME280;33476;50.984;3.538;2023-02-18T01:59:45;102371.00;;;13.35;75.68
47716;BME280;33476;50.984;3.538;2023-02-18T02:02:16;102373.63;;;13.35;75.65
47716;BME280;33476;50.984;3.538;2023-02-18T02:04:42;102380.69;;;13.33;75.95
47716;BME280;33476;50.984;3.538;2023-02-18T02:07:08;102388.44;;;13.36;75.68
47716;BME280;33476;50.984;3.538;2023-02-18T02:09:34;102374.53;;;13.34;75.51
47716;BME280;33476;50.984;3.538;2023-02-18T02:12:24;102381.75;;;13.27;76.16
47716;BME280;33476;50.984;3.538;2023-02-18T02:29:24;102344.50;;;13.16;76.21
47716;BME280;33476;50.984;3.538;2023-02-18T02:34:42;102352.59;;;13.10;76.79
47716;BME280;33476;50.984;3.538;2023-02-18T02:37:26;102334.03;;;13.14;76.50
47716;BME280;33476;50.984;3.538;2023-02-18T02:40:06;102335.81;;;13.14;76.70
47716;BME280;33476;50.984;3.538;2023-02-18T02:42:53;102347.22;;;13.13;76.64
47716;BME280;33476;50.984;3.538;2023-02-18T02:45:57;102338.38;;;13.15;76.79
47716;BME280;33476;50.984;3.538;2023-02-18T02:48:42;102340.91;;;13.18;76.47
47716;BME280;33476;50.984;3.538;2023-02-18T02:51:27;102341.50;;;13.02;77.28
47716;BME280;33476;50.984;3.538;2023-02-18T02:53:54;102339.59;;;13.05;77.65
47716;BME280;33476;50.984;3.538;2023-02-18T02:56:22;102334.38;;;13.05;77.91
47716;BME280;33476;50.984;3.538;2023-02-18T02:58:59;102330.81;;;13.08;77.81
47716;BME280;33476;50.984;3.538;2023-02-18T03:04:19;102319.34;;;13.10;77.70
47716;BME280;33476;50.984;3.538;2023-02-18T03:07:28;102321.25;;;13.05;77.84
47716;BME280;33476;50.984;3.538;2023-02-18T03:10:04;102332.34;;;13.13;77.38
47716;BME280;33476;50.984;3.538;2023-02-18T03:12:44;102320.34;;;13.06;77.95
47716;BME280;33476;50.984;3.538;2023-02-18T03:15:39;102316.00;;;13.05;77.95
47716;BME280;33476;50.984;3.538;2023-02-18T03:18:17;102309.97;;;13.03;78.00
47716;BME280;33476;50.984;3.538;2023-02-18T03:20:52;102320.56;;;13.00;78.23
47716;BME280;33476;50.984;3.538;2023-02-18T03:23:24;102315.53;;;12.94;78.25
47716;BME280;33476;50.984;3.538;2023-02-18T03:25:51;102310.09;;;12.99;78.65
47716;BME280;33476;50.984;3.538;2023-02-18T03:28:19;102297.09;;;12.96;78.65
47716;BME280;33476;50.984;3.538;2023-02-18T03:30:52;102293.69;;;12.93;78.69
47716;BME280;33476;50.984;3.538;2023-02-18T03:33:25;102286.69;;;12.94;78.41
47716;BME280;33476;50.984;3.538;2023-02-18T03:35:53;102293.63;;;12.95;78.33
47716;BME280;33476;50.984;3.538;2023-02-18T03:38:23;102288.38;;;12.95;78.51
47716;BME280;33476;50.984;3.538;2023-02-18T03:40:50;102295.25;;;12.99;78.17
47716;BME280;33476;50.984;3.538;2023-02-18T03:43:16;102290.69;;;13.04;78.04
47716;BME280;33476;50.984;3.538;2023-02-18T03:45:42;102287.22;;;13.04;77.76
47716;BME280;33476;50.984;3.538;2023-02-18T03:48:07;102277.56;;;13.04;77.63
47716;BME280;33476;50.984;3.538;2023-02-18T03:50:33;102258.41;;;13.02;77.99
47716;BME280;33476;50.984;3.538;2023-02-18T03:52:58;102260.28;;;12.99;78.38
47716;BME280;33476;50.984;3.538;2023-02-18T03:55:23;102255.16;;;12.96;78.51
47716;BME280;33476;50.984;3.538;2023-02-18T03:57:48;102258.69;;;12.94;78.56
47716;BME280;33476;50.984;3.538;2023-02-18T04:00:14;102259.53;;;12.95;78.71
47716;BME280;33476;50.984;3.538;2023-02-18T04:02:40;102250.75;;;12.96;78.72
47716;BME280;33476;50.984;3.538;2023-02-18T04:05:05;102254.34;;;12.93;78.71
47716;BME280;33476;50.984;3.538;2023-02-18T04:07:31;102252.59;;;12.94;78.85
47716;BME280;33476;50.984;3.538;2023-02-18T04:09:56;102251.59;;;12.97;78.52
47716;BME280;33476;50.984;3.538;2023-02-18T04:12:22;102246.47;;;12.93;78.55
47716;BME280;33476;50.984;3.538;2023-02-18T04:14:47;102256.22;;;12.90;78.66
47716;BME280;33476;50.984;3.538;2023-02-18T04:17:12;102247.75;;;12.82;79.31
47716;BME280;33476;50.984;3.538;2023-02-18T04:19:38;102251.41;;;12.78;79.26
47716;BME280;33476;50.984;3.538;2023-02-18T04:22:03;102250.28;;;12.85;79.31
47716;BME280;33476;50.984;3.538;2023-02-18T04:24:28;102246.47;;;12.93;78.71
47716;BME280;33476;50.984;3.538;2023-02-18T04:26:54;102257.94;;;12.91;78.60
47716;BME280;33476;50.984;3.538;2023-02-18T04:29:19;102250.97;;;12.90;78.91
47716;BME280;33476;50.984;3.538;2023-02-18T04:31:44;102243.16;;;12.88;78.61
47716;BME280;33476;50.984;3.538;2023-02-18T04:34:10;102247.59;;;12.86;78.71
47716;BME280;33476;50.984;3.538;2023-02-18T04:36:35;102252.84;;;12.86;79.05
47716;BME280;33476;50.984;3.538;2023-02-18T04:39:00;102266.69;;;12.90;78.41
47716;BME280;33476;50.984;3.538;2023-02-18T04:41:26;102261.44;;;12.90;78.67
47716;BME280;33476;50.984;3.538;2023-02-18T04:43:51;102262.28;;;12.92;78.35
47716;BME280;33476;50.984;3.538;2023-02-18T04:46:17;102257.72;;;12.97;78.14
47716;BME280;33476;50.984;3.538;2023-02-18T04:48:43;102260.44;;;12.94;78.16
47716;BME280;33476;50.984;3.538;2023-02-18T04:51:08;102271.06;;;12.91;78.11
47716;BME280;33476;50.984;3.538;2023-02-18T04:53:34;102269.31;;;12.90;78.37
47716;BME280;33476;50.984;3.538;2023-02-18T04:55:59;102249.25;;;12.89;78.13
47716;BME280;33476;50.984;3.538;2023-02-18T04:58:25;102262.41;;;12.87;77.82
47716;BME280;33476;50.984;3.538;2023-02-18T05:00:50;102243.28;;;12.85;77.77
47716;BME280;33476;50.984;3.538;2023-02-18T05:03:16;102254.63;;;12.86;77.36
47716;BME280;33476;50.984;3.538;2023-02-18T05:05:41;102250.34;;;12.83;76.91
47716;BME280;33476;50.984;3.538;2023-02-18T05:08:07;102260.84;;;12.82;76.73
47716;BME280;33476;50.984;3.538;2023-02-18T05:10:33;102239.16;;;12.78;76.49
47716;BME280;33476;50.984;3.538;2023-02-18T05:12:58;102259.09;;;12.82;76.16
47716;BME280;33476;50.984;3.538;2023-02-18T05:15:24;102257.34;;;12.83;75.65
47716;BME280;33476;50.984;3.538;2023-02-18T05:17:50;102252.97;;;12.83;75.24
47716;BME280;33476;50.984;3.538;2023-02-18T05:20:15;102230.16;;;12.85;74.73
47716;BME280;33476;50.984;3.538;2023-02-18T05:22:41;102255.47;;;12.86;74.22
47716;BME280;33476;50.984;3.538;2023-02-18T05:25:07;102253.69;;;12.87;74.07
47716;BME280;33476;50.984;3.538;2023-02-18T05:27:32;102254.50;;;12.89;74.00
47716;BME280;33476;50.984;3.538;2023-02-18T05:29:58;102252.72;;;12.89;73.19
47716;BME280;33476;50.984;3.538;2023-02-18T05:32:24;102247.53;;;12.88;72.49
47716;BME280;33476;50.984;3.538;2023-02-18T05:34:49;102245.13;;;12.82;72.59
47716;BME280;33476;50.984;3.538;2023-02-18T05:37:16;102249.50;;;12.81;72.12
47716;BME280;33476;50.984;3.538;2023-02-18T05:39:43;102244.50;;;12.75;71.89
47716;BME280;33476;50.984;3.538;2023-02-18T05:42:08;102238.44;;;12.73;71.80
47716;BME280;33476;50.984;3.538;2023-02-18T05:44:33;102245.50;;;12.71;71.10
47716;BME280;33476;50.984;3.538;2023-02-18T05:47:04;102243.00;;;12.68;70.81
47716;BME280;33476;50.984;3.538;2023-02-18T05:49:31;102229.94;;;12.67;70.40
47716;BME280;33476;50.984;3.538;2023-02-18T05:51:58;102227.09;;;12.73;70.24
47716;BME280;33476;50.984;3.538;2023-02-18T05:54:23;102227.00;;;12.76;70.10
47716;BME280;33476;50.984;3.538;2023-02-18T05:56:49;102240.91;;;12.78;69.84
47716;BME280;33476;50.984;3.538;2023-02-18T05:59:15;102226.16;;;12.75;69.19
47716;BME280;33476;50.984;3.538;2023-02-18T06:01:41;102221.69;;;12.77;69.25
47716;BME280;33476;50.984;3.538;2023-02-18T06:04:06;102219.94;;;12.78;69.11
47716;BME280;33476;50.984;3.538;2023-02-18T06:06:33;102210.44;;;12.75;68.62
47716;BME280;33476;50.984;3.538;2023-02-18T06:08:58;102214.16;;;12.68;68.39
47716;BME280;33476;50.984;3.538;2023-02-18T06:11:23;102196.72;;;12.67;68.10
47716;BME280;33476;50.984;3.538;2023-02-18T06:13:49;102220.31;;;12.67;67.67
47716;BME280;33476;50.984;3.538;2023-02-18T06:16:14;102208.06;;;12.68;67.83
47716;BME280;33476;50.984;3.538;2023-02-18T06:18:39;102211.53;;;12.68;67.38
47716;BME280;33476;50.984;3.538;2023-02-18T06:21:05;102212.47;;;12.65;67.34
47716;BME280;33476;50.984;3.538;2023-02-18T06:23:30;102216.72;;;12.70;67.17
47716;BME280;33476;50.984;3.538;2023-02-18T06:25:56;102218.38;;;12.72;66.95
47716;BME280;33476;50.984;3.538;2023-02-18T06:28:21;102205.28;;;12.72;66.79
47716;BME280;33476;50.984;3.538;2023-02-18T06:30:46;102211.31;;;12.74;66.55
47716;BME280;33476;50.984;3.538;2023-02-18T06:33:12;102205.97;;;12.77;66.28
47716;BME280;33476;50.984;3.538;2023-02-18T06:35:37;102222.69;;;12.75;66.29
47716;BME280;33476;50.984;3.538;2023-02-18T06:38:03;102209.56;;;12.75;65.97
47716;BME280;33476;50.984;3.538;2023-02-18T06:40:28;102203.44;;;12.74;65.94
47716;BME280;33476;50.984;3.538;2023-02-18T06:42:53;102190.44;;;12.71;65.92
47716;BME280;33476;50.984;3.538;2023-02-18T06:45:19;102182.66;;;12.70;65.81
47716;BME280;33476;50.984;3.538;2023-02-18T06:47:44;102185.28;;;12.70;66.05
47716;BME280;33476;50.984;3.538;2023-02-18T06:50:09;102186.97;;;12.71;65.58
47716;BME280;33476;50.984;3.538;2023-02-18T06:52:35;102193.06;;;12.71;65.71
47716;BME280;33476;50.984;3.538;2023-02-18T06:55:05;102194.00;;;12.70;65.41
47716;BME280;33476;50.984;3.538;2023-02-18T06:57:31;102195.69;;;12.71;65.16
47716;BME280;33476;50.984;3.538;2023-02-18T06:59:57;102202.75;;;12.69;65.43
47716;BME280;33476;50.984;3.538;2023-02-18T07:02:22;102204.47;;;12.70;65.00
47716;BME280;33476;50.984;3.538;2023-02-18T07:04:47;102207.09;;;12.70;65.31
47716;BME280;33476;50.984;3.538;2023-02-18T07:07:13;102212.41;;;12.69;65.17
47716;BME280;33476;50.984;3.538;2023-02-18T07:09:38;102216.78;;;12.68;65.20
47716;BME280;33476;50.984;3.538;2023-02-18T07:12:04;102211.38;;;12.73;65.01
47716;BME280;33476;50.984;3.538;2023-02-18T07:14:29;102210.69;;;12.68;64.66
47716;BME280;33476;50.984;3.538;2023-02-18T07:16:55;102214.22;;;12.67;64.86
47716;BME280;33476;50.984;3.538;2023-02-18T07:19:20;102215.00;;;12.69;64.60
47716;BME280;33476;50.984;3.538;2023-02-18T07:21:45;102212.44;;;12.67;64.75
47716;BME280;33476;50.984;3.538;2023-02-18T07:24:11;102220.41;;;12.64;64.97
47716;BME280;33476;50.984;3.538;2023-02-18T07:26:37;102223.84;;;12.66;64.90
47716;BME280;33476;50.984;3.538;2023-02-18T07:29:02;102224.72;;;12.67;64.76
47716;BME280;33476;50.984;3.538;2023-02-18T07:31:28;102223.78;;;12.68;64.71
47716;BME280;33476;50.984;3.538;2023-02-18T07:33:53;102236.84;;;12.69;64.61
47716;BME280;33476;50.984;3.538;2023-02-18T07:36:18;102235.13;;;12.68;64.75
47716;BME280;33476;50.984;3.538;2023-02-18T07:38:43;102224.72;;;12.67;65.11
47716;BME280;33476;50.984;3.538;2023-02-18T07:41:17;102218.88;;;12.58;65.24
47716;BME280;33476;50.984;3.538;2023-02-18T07:43:43;102226.63;;;12.61;64.86
47716;BME280;33476;50.984;3.538;2023-02-18T07:46:08;102236.13;;;12.64;65.21
47716;BME280;33476;50.984;3.538;2023-02-18T07:48:33;102230.75;;;12.69;64.89
47716;BME280;33476;50.984;3.538;2023-02-18T07:50:59;102245.56;;;12.70;65.00
47716;BME280;33476;50.984;3.538;2023-02-18T07:53:25;102252.56;;;12.69;65.02
47716;BME280;33476;50.984;3.538;2023-02-18T07:55:50;102239.53;;;12.68;64.72
47716;BME280;33476;50.984;3.538;2023-02-18T07:58:16;102253.47;;;12.68;64.95
47716;BME280;33476;50.984;3.538;2023-02-18T08:00:42;102259.41;;;12.73;64.77
47716;BME280;33476;50.984;3.538;2023-02-18T08:03:07;102252.41;;;12.74;64.59
47716;BME280;33476;50.984;3.538;2023-02-18T08:05:33;102256.59;;;12.79;64.68
47716;BME280;33476;50.984;3.538;2023-02-18T08:07:58;102249.50;;;12.83;64.34
47716;BME280;33476;50.984;3.538;2023-02-18T08:10:23;102259.91;;;12.84;64.61
47716;BME280;33476;50.984;3.538;2023-02-18T08:12:49;102265.09;;;12.86;64.37
47716;BME280;33476;50.984;3.538;2023-02-18T08:15:14;102264.13;;;12.88;64.52
47716;BME280;33476;50.984;3.538;2023-02-18T08:17:40;102261.56;;;12.87;64.52
47716;BME280;33476;50.984;3.538;2023-02-18T08:20:06;102256.31;;;12.87;64.87
47716;BME280;33476;50.984;3.538;2023-02-18T08:22:31;102271.19;;;12.86;64.81
47716;BME280;33476;50.984;3.538;2023-02-18T08:24:56;102273.94;;;12.83;64.64
47716;BME280;33476;50.984;3.538;2023-02-18T08:27:22;102275.72;;;12.83;64.80
47716;BME280;33476;50.984;3.538;2023-02-18T08:29:48;102260.97;;;12.79;64.96
47716;BME280;33476;50.984;3.538;2023-02-18T08:32:13;102265.38;;;12.78;65.21
47716;BME280;33476;50.984;3.538;2023-02-18T08:34:39;102254.75;;;12.81;65.24
47716;BME280;33476;50.984;3.538;2023-02-18T08:37:04;102252.78;;;12.88;64.92
47716;BME280;33476;50.984;3.538;2023-02-18T08:39:36;102254.34;;;12.93;65.01
47716;BME280;33476;50.984;3.538;2023-02-18T08:42:03;102248.06;;;12.98;64.75
47716;BME280;33476;50.984;3.538;2023-02-18T08:44:28;102254.22;;;12.97;65.34
47716;BME280;33476;50.984;3.538;2023-02-18T08:46:54;102250.75;;;12.96;65.10
47716;BME280;33476;50.984;3.538;2023-02-18T08:49:19;102252.41;;;12.99;65.44
47716;BME280;33476;50.984;3.538;2023-02-18T08:51:46;102251.41;;;13.03;65.24
47716;BME280;33476;50.984;3.538;2023-02-18T08:54:11;102259.84;;;13.11;64.94
47716;BME280;33476;50.984;3.538;2023-02-18T08:56:37;102263.44;;;13.08;65.12
47716;BME280;33476;50.984;3.538;2023-02-18T08:59:04;102263.41;;;13.10;65.08
47716;BME280;33476;50.984;3.538;2023-02-18T09:01:30;102264.31;;;13.09;65.49
47716;BME280;33476;50.984;3.538;2023-02-18T09:03:55;102274.81;;;13.09;65.83
47716;BME280;33476;50.984;3.538;2023-02-18T09:06:21;102261.63;;;13.10;65.50
47716;BME280;33476;50.984;3.538;2023-02-18T09:08:48;102259.78;;;13.12;65.45
47716;BME280;33476;50.984;3.538;2023-02-18T09:11:13;102264.84;;;13.18;65.45
47716;BME280;33476;50.984;3.538;2023-02-18T09:13:39;102261.31;;;13.19;65.53
47716;BME280;33476;50.984;3.538;2023-02-18T09:16:16;102247.44;;;13.16;65.54
47716;BME280;33476;50.984;3.538;2023-02-18T09:18:46;102256.25;;;13.13;66.11
47716;BME280;33476;50.984;3.538;2023-02-18T09:21:13;102250.94;;;13.15;65.83
47716;BME280;33476;50.984;3.538;2023-02-18T09:23:40;102252.53;;;13.20;66.27
47716;BME280;33476;50.984;3.538;2023-02-18T09:26:08;102256.97;;;13.18;66.34
47716;BME280;33476;50.984;3.538;2023-02-18T09:28:34;102250.72;;;13.23;65.96
47716;BME280;33476;50.984;3.538;2023-02-18T09:31:26;102263.13;;;13.17;66.71
47716;BME280;33476;50.984;3.538;2023-02-18T09:33:55;102272.53;;;13.25;66.18
47716;BME280;33476;50.984;3.538;2023-02-18T09:36:21;102265.31;;;13.30;66.15
47716;BME280;33476;50.984;3.538;2023-02-18T09:38:46;102258.38;;;13.29;66.28
47716;BME280;33476;50.984;3.538;2023-02-18T09:44:03;102256.66;;;13.28;66.46
47716;BME280;33476;50.984;3.538;2023-02-18T09:46:35;102271.44;;;13.30;66.84
47716;BME280;33476;50.984;3.538;2023-02-18T09:49:06;102265.16;;;13.34;66.34
47716;BME280;33476;50.984;3.538;2023-02-18T09:51:36;102253.00;;;13.32;66.80
47716;BME280;33476;50.984;3.538;2023-02-18T09:54:01;102252.97;;;13.33;66.66
47716;BME280;33476;50.984;3.538;2023-02-18T09:56:30;102253.81;;;13.34;67.04
47716;BME280;33476;50.984;3.538;2023-02-18T09:58:57;102251.19;;;13.34;66.67
47716;BME280;33476;50.984;3.538;2023-02-18T10:01:29;102267.00;;;13.32;66.77
47716;BME280;33476;50.984;3.538;2023-02-18T10:04:02;102270.34;;;13.36;66.92
47716;BME280;33476;50.984;3.538;2023-02-18T10:06:33;102272.66;;;13.45;66.80
47716;BME280;33476;50.984;3.538;2023-02-18T10:09:02;102275.91;;;13.52;66.50
47716;BME280;33476;50.984;3.538;2023-02-18T10:11:39;102269.00;;;13.49;66.96
47716;BME280;33476;50.984;3.538;2023-02-18T10:14:10;102274.19;;;13.51;66.74
47716;BME280;33476;50.984;3.538;2023-02-18T10:16:36;102272.31;;;13.54;66.86
47716;BME280;33476;50.984;3.538;2023-02-18T10:19:20;102270.81;;;13.47;67.00
47716;BME280;33476;50.984;3.538;2023-02-18T10:21:47;102279.31;;;13.54;67.23
47716;BME280;33476;50.984;3.538;2023-02-18T10:26:52;102285.38;;;13.56;67.09
47716;BME280;33476;50.984;3.538;2023-02-18T10:29:20;102285.38;;;13.56;67.08
47716;BME280;33476;50.984;3.538;2023-02-18T10:31:55;102294.28;;;13.52;67.20
47716;BME280;33476;50.984;3.538;2023-02-18T10:39:58;102278.34;;;13.56;66.84
47716;BME280;33476;50.984;3.538;2023-02-18T10:42:41;102289.81;;;13.54;67.04
47716;BME280;33476;50.984;3.538;2023-02-18T10:52:59;102299.81;;;13.67;66.58
47716;BME280;33476;50.984;3.538;2023-02-18T10:55:38;102294.66;;;13.64;66.85
47716;BME280;33476;50.984;3.538;2023-02-18T11:00:48;102293.44;;;13.74;66.66
47716;BME280;33476;50.984;3.538;2023-02-18T11:03:19;102299.47;;;13.76;66.77
47716;BME280;33476;50.984;3.538;2023-02-18T11:05:47;102298.44;;;13.81;66.43
47716;BME280;33476;50.984;3.538;2023-02-18T11:08:19;102299.34;;;13.80;66.63
47716;BME280;33476;50.984;3.538;2023-02-18T11:10:47;102291.38;;;13.83;66.38
47716;BME280;33476;50.984;3.538;2023-02-18T11:13:15;102290.63;;;13.79;66.59
47716;BME280;33476;50.984;3.538;2023-02-18T11:16:05;102286.16;;;13.81;66.41
47716;BME280;33476;50.984;3.538;2023-02-18T11:18:43;102298.41;;;13.82;66.17
47716;BME280;33476;50.984;3.538;2023-02-18T11:21:21;102297.34;;;13.86;66.30
47716;BME280;33476;50.984;3.538;2023-02-18T11:23:53;102295.66;;;13.85;66.07
47716;BME280;33476;50.984;3.538;2023-02-18T11:26:38;102298.44;;;13.81;66.48
47716;BME280;33476;50.984;3.538;2023-02-18T11:29:19;102293.31;;;13.77;66.15
47716;BME280;33476;50.984;3.538;2023-02-18T11:31:48;102289.47;;;13.86;66.34
47716;BME280;33476;50.984;3.538;2023-02-18T11:34:32;102297.41;;;13.85;65.97
47716;BME280;33476;50.984;3.538;2023-02-18T11:37:15;102279.75;;;13.88;66.07
47716;BME280;33476;50.984;3.538;2023-02-18T11:39:46;102292.59;;;13.96;65.89
47716;BME280;33476;50.984;3.538;2023-02-18T11:42:14;102295.28;;;13.94;66.14
47716;BME280;33476;50.984;3.538;2023-02-18T11:44:48;102284.06;;;13.91;65.87
47716;BME280;33476;50.984;3.538;2023-02-18T11:49:41;102279.53;;;13.94;66.28
47716;BME280;33476;50.984;3.538;2023-02-18T11:52:23;102286.56;;;13.94;65.99
47716;BME280;33476;50.984;3.538;2023-02-18T11:55:03;102279.47;;;13.96;65.76
47716;BME280;33476;50.984;3.538;2023-02-18T11:57:30;102274.13;;;13.97;66.12
47716;BME280;33476;50.984;3.538;2023-02-18T11:59:57;102275.81;;;14.00;65.94
47716;BME280;33476;50.984;3.538;2023-02-18T12:02:33;102280.16;;;14.01;65.94
47716;BME280;33476;50.984;3.538;2023-02-18T12:05:22;102280.09;;;14.02;66.02
47716;BME280;33476;50.984;3.538;2023-02-18T12:07:52;102281.66;;;14.06;65.98
47716;BME280;33476;50.984;3.538;2023-02-18T12:13:31;102282.72;;;14.02;65.95
47716;BME280;33476;50.984;3.538;2023-02-18T12:18:51;102282.03;;;13.97;66.46
47716;BME280;33476;50.984;3.538;2023-02-18T12:21:27;102288.81;;;14.03;66.10
47716;BME280;33476;50.984;3.538;2023-02-18T12:24:22;102295.91;;;14.01;66.63
47716;BME280;33476;50.984;3.538;2023-02-18T12:32:16;102288.13;;;13.98;66.71
47716;BME280;33476;50.984;3.538;2023-02-18T12:37:52;102289.31;;;13.91;66.98
47716;BME280;33476;50.984;3.538;2023-02-18T12:43:04;102288.41;;;13.92;67.08
47716;BME280;33476;50.984;3.538;2023-02-18T12:56:11;102290.16;;;13.91;67.49
47716;BME280;33476;50.984;3.538;2023-02-18T13:04:57;102278.66;;;13.94;67.65
47716;BME280;33476;50.984;3.538;2023-02-18T13:10:36;102282.00;;;13.99;67.35
47716;BME280;33476;50.984;3.538;2023-02-18T13:13:22;102276.34;;;13.86;67.99
47716;BME280;33476;50.984;3.538;2023-02-18T13:15:58;102271.88;;;13.88;67.92
47716;BME280;33476;50.984;3.538;2023-02-18T13:21:04;102267.25;;;13.95;68.32
47716;BME280;33476;50.984;3.538;2023-02-18T13:23:33;102270.56;;;14.00;68.46
47716;BME280;33476;50.984;3.538;2023-02-18T13:26:01;102268.88;;;13.97;68.29
47716;BME280;33476;50.984;3.538;2023-02-18T13:28:31;102258.16;;;14.03;68.36
47716;BME280;33476;50.984;3.538;2023-02-18T13:34:00;102259.13;;;14.01;68.54
47716;BME280;33476;50.984;3.538;2023-02-18T13:36:33;102261.63;;;14.04;68.23
47716;BME280;33476;50.984;3.538;2023-02-18T13:39:18;102255.72;;;13.99;68.44
47716;BME280;33476;50.984;3.538;2023-02-18T13:41:47;102257.28;;;14.03;68.63
47716;BME280;33476;50.984;3.538;2023-02-18T13:46:48;102262.78;;;13.97;69.15
47716;BME280;33476;50.984;3.538;2023-02-18T13:49:17;102250.50;;;13.97;69.20
47716;BME280;33476;50.984;3.538;2023-02-18T13:51:46;102244.41;;;13.97;69.53
47716;BME280;33476;50.984;3.538;2023-02-18T13:56:44;102240.91;;;13.96;69.31
47716;BME280;33476;50.984;3.538;2023-02-18T13:59:17;102248.72;;;13.98;69.49
47716;BME280;33476;50.984;3.538;2023-02-18T14:01:48;102249.56;;;14.00;69.28
47716;BME280;33476;50.984;3.538;2023-02-18T14:09:45;102239.69;;;14.05;69.32
47716;BME280;33476;50.984;3.538;2023-02-18T14:17:43;102241.28;;;14.09;69.43
47716;BME280;33476;50.984;3.538;2023-02-18T14:22:46;102234.50;;;14.03;69.27
47716;BME280;33476;50.984;3.538;2023-02-18T14:25:21;102230.03;;;14.05;69.45
47716;BME280;33476;50.984;3.538;2023-02-18T14:27:52;102227.94;;;14.15;69.19
47716;BME280;33476;50.984;3.538;2023-02-18T14:30:19;102226.00;;;14.19;69.08
47716;BME280;33476;50.984;3.538;2023-02-18T14:32:49;102223.78;;;14.30;68.68
47716;BME280;33476;50.984;3.538;2023-02-18T14:35:39;102221.22;;;14.28;68.31
47716;BME280;33476;50.984;3.538;2023-02-18T14:40:41;102213.47;;;14.25;68.59
47716;BME280;33476;50.984;3.538;2023-02-18T14:49:41;102220.81;;;14.17;68.70
47716;BME280;33476;50.984;3.538;2023-02-18T14:52:22;102228.63;;;14.19;68.48
47716;BME280;33476;50.984;3.538;2023-02-18T14:54:50;102228.72;;;14.17;68.78